Time;durP1;ratioP1;P1;durP2;ratioP2;P2;SDS_P1;SDS_P2;PMS_P1;PMS_P2;Temp;Humidity;BMP_temperature;BMP_pressure;BME280_temperature;BME280_humidity;BME280_pressure;Samples;Min_cycle;Max_cycle;Signal;HPM_P1;HPM_P2
2022/03/22 00:01:42;;;;;;;13.00;8.87;;;;;;;;;;4970223;28;20200;-29
2022/03/22 00:04:10;;;;;;;13.93;9.07;;;;;;;;;;4970617;28;20208;-31
2022/03/22 00:06:37;;;;;;;16.20;10.53;;;;;;;;;;4983433;28;20247;-28
2022/03/22 00:09:05;;;;;;;17.20;10.23;;;;;;;;;;4986925;28;20272;-29
2022/03/22 00:11:33;;;;;;;13.57;9.07;;;;;;;;;;4970593;28;20213;-31
2022/03/22 00:14:00;;;;;;;11.10;8.30;;;;;;;;;;4980790;28;20263;-30
2022/03/22 00:16:27;;;;;;;12.73;8.70;;;;;;;;;;4985882;28;20262;-30
2022/03/22 00:18:56;;;;;;;14.03;8.43;;;;;;;;;;4989410;28;20211;-29
2022/03/22 00:21:23;;;;;;;11.13;7.67;;;;;;;;;;4988442;28;20215;-32
2022/03/22 00:23:50;;;;;;;18.17;8.67;;;;;;;;;;4988370;28;20224;-30
2022/03/22 00:26:17;;;;;;;13.90;9.00;;;;;;;;;;4978300;28;20220;-28
2022/03/22 00:28:45;;;;;;;13.90;8.40;;;;;;;;;;4970808;28;20271;-28
2022/03/22 00:31:12;;;;;;;12.33;8.70;;;;;;;;;;4972710;28;20203;-28
2022/03/22 00:33:40;;;;;;;13.37;8.53;;;;;;;;;;4990828;28;20203;-30
2022/03/22 00:36:10;;;;;;;14.57;9.47;;;;;;;;;;4981974;28;20247;-26
2022/03/22 00:38:37;;;;;;;9.27;7.33;;;;;;;;;;4989873;28;20208;-30
2022/03/22 00:41:04;;;;;;;14.73;8.33;;;;;;;;;;4993467;28;20287;-32
2022/03/22 00:43:34;;;;;;;11.50;7.77;;;;;;;;;;4981937;28;20224;-30
2022/03/22 00:46:01;;;;;;;11.30;7.43;;;;;;;;;;4977710;28;20591;-31
2022/03/22 00:48:29;;;;;;;12.77;7.83;;;;;;;;;;4980576;28;20280;-28
2022/03/22 00:50:56;;;;;;;13.07;7.73;;;;;;;;;;4986542;28;20240;-32
2022/03/22 00:53:25;;;;;;;10.67;7.87;;;;;;;;;;4996944;28;20204;-30
2022/03/22 00:55:52;;;;;;;12.47;8.27;;;;;;;;;;4981115;28;20220;-30
2022/03/22 00:58:20;;;;;;;10.60;8.07;;;;;;;;;;4989676;28;20228;-31
2022/03/22 01:00:48;;;;;;;12.00;8.33;;;;;;;;;;4987658;28;20290;-28
2022/03/22 01:03:15;;;;;;;11.67;8.57;;;;;;;;;;4991688;28;20220;-27
2022/03/22 01:05:42;;;;;;;11.10;7.33;;;;;;;;;;4989413;28;20270;-28
2022/03/22 01:08:10;;;;;;;14.63;8.60;;;;;;;;;;4990467;28;20263;-30
2022/03/22 01:10:41;;;;;;;9.87;8.20;;;;;;;;;;4988734;28;20262;-31
2022/03/22 01:13:09;;;;;;;15.30;8.90;;;;;;;;;;4980897;28;20212;-26
2022/03/22 01:15:37;;;;;;;10.03;7.87;;;;;;;;;;4974967;28;20282;-26
2022/03/22 01:18:06;;;;;;;11.53;8.53;;;;;;;;;;4986335;28;20299;-26
2022/03/22 01:20:34;;;;;;;9.47;7.10;;;;;;;;;;4978132;28;20197;-31
2022/03/22 01:23:02;;;;;;;13.63;9.13;;;;;;;;;;4973234;28;20220;-28
2022/03/22 01:25:30;;;;;;;13.10;9.37;;;;;;;;;;4972422;28;20228;-31
2022/03/22 01:27:59;;;;;;;12.73;9.17;;;;;;;;;;4990240;28;20208;-30
2022/03/22 01:30:27;;;;;;;14.43;8.67;;;;;;;;;;4980857;28;20248;-32
2022/03/22 01:32:55;;;;;;;12.67;7.30;;;;;;;;;;4973334;28;20201;-29
2022/03/22 01:35:24;;;;;;;10.37;7.83;;;;;;;;;;4984145;28;20228;-27
2022/03/22 01:37:51;;;;;;;11.20;7.83;;;;;;;;;;4986932;28;20197;-31
2022/03/22 01:40:19;;;;;;;13.87;8.47;;;;;;;;;;4973024;28;20208;-28
2022/03/22 01:42:47;;;;;;;12.37;9.00;;;;;;;;;;4973715;28;20262;-29
2022/03/22 01:45:16;;;;;;;12.90;8.67;;;;;;;;;;4986817;28;20228;-33
2022/03/22 01:47:43;;;;;;;12.90;8.23;;;;;;;;;;4980684;28;20239;-30
2022/03/22 01:50:11;;;;;;;10.83;7.37;;;;;;;;;;4992259;28;20220;-31
2022/03/22 01:52:40;;;;;;;10.40;7.70;;;;;;;;;;4993386;28;20200;-31
2022/03/22 01:55:08;;;;;;;11.90;8.30;;;;;;;;;;4983304;28;20240;-28
2022/03/22 01:57:35;;;;;;;15.20;9.03;;;;;;;;;;4991651;28;20203;-30
2022/03/22 02:00:02;;;;;;;12.67;8.17;;;;;;;;;;4990134;28;20235;-28
2022/03/22 02:08:03;;;;;;;11.03;7.33;;;;;;;;;;4978843;28;20239;-27
2022/03/22 02:10:31;;;;;;;10.33;7.43;;;;;;;;;;4994473;28;20207;-25
2022/03/22 02:12:58;;;;;;;9.73;7.17;;;;;;;;;;4985001;28;20266;-29
2022/03/22 02:15:26;;;;;;;9.27;6.97;;;;;;;;;;4984317;28;20232;-30
2022/03/22 02:17:54;;;;;;;12.70;7.97;;;;;;;;;;4989559;28;20232;-28
2022/03/22 02:20:21;;;;;;;10.27;7.43;;;;;;;;;;4994309;28;20286;-26
2022/03/22 02:22:52;;;;;;;11.50;7.73;;;;;;;;;;4991024;28;20315;-27
2022/03/22 02:25:21;;;;;;;12.77;8.00;;;;;;;;;;4991633;28;20236;-30
2022/03/22 02:27:48;;;;;;;14.87;8.70;;;;;;;;;;4988513;28;20317;-29
2022/03/22 02:30:16;;;;;;;11.37;7.27;;;;;;;;;;4990473;28;20259;-26
2022/03/22 02:32:50;;;;;;;11.33;7.90;;;;;;;;;;4975719;28;20205;-28
2022/03/22 02:35:17;;;;;;;13.27;8.60;;;;;;;;;;4973313;28;20253;-29
2022/03/22 02:37:45;;;;;;;10.07;7.97;;;;;;;;;;4994858;28;20200;-32
2022/03/22 02:40:13;;;;;;;11.63;8.50;;;;;;;;;;4975550;28;20255;-28
2022/03/22 02:42:44;;;;;;;12.07;8.60;;;;;;;;;;4990799;28;20208;-24
2022/03/22 02:45:12;;;;;;;12.10;8.10;;;;;;;;;;4978866;28;20217;-28
2022/03/22 02:47:40;;;;;;;11.30;7.63;;;;;;;;;;4971802;28;20292;-29
2022/03/22 02:50:08;;;;;;;13.80;8.07;;;;;;;;;;4971514;28;20223;-29
2022/03/22 02:52:36;;;;;;;11.33;7.87;;;;;;;;;;4972952;28;20205;-31
2022/03/22 02:55:04;;;;;;;7.67;6.70;;;;;;;;;;5000988;28;20235;-27
2022/03/22 02:57:32;;;;;;;10.93;8.40;;;;;;;;;;4982703;28;20200;-30
2022/03/22 03:00:01;;;;;;;11.23;7.13;;;;;;;;;;4990979;28;20239;-27
2022/03/22 03:02:28;;;;;;;11.70;8.03;;;;;;;;;;4994266;28;20215;-31
2022/03/22 03:04:55;;;;;;;11.33;7.57;;;;;;;;;;4970847;28;20256;-32
2022/03/22 03:07:23;;;;;;;12.03;7.77;;;;;;;;;;4985342;28;20231;-26
2022/03/22 03:09:50;;;;;;;12.00;8.27;;;;;;;;;;4971295;28;20259;-29
2022/03/22 03:12:17;;;;;;;11.30;7.47;;;;;;;;;;4976970;28;20248;-27
2022/03/22 03:14:47;;;;;;;9.60;7.97;;;;;;;;;;4978088;28;20219;-29
2022/03/22 03:17:16;;;;;;;11.67;7.27;;;;;;;;;;4991256;28;20204;-29
2022/03/22 03:19:43;;;;;;;10.23;7.30;;;;;;;;;;4990017;28;20235;-28
2022/03/22 03:22:11;;;;;;;10.33;6.90;;;;;;;;;;4974479;28;20235;-30
2022/03/22 03:24:38;;;;;;;8.70;6.90;;;;;;;;;;4988494;28;20251;-27
2022/03/22 03:27:06;;;;;;;12.73;7.67;;;;;;;;;;4971678;28;20209;-30
2022/03/22 03:29:33;;;;;;;10.87;8.33;;;;;;;;;;4969745;28;20275;-28
2022/03/22 03:32:00;;;;;;;10.20;7.63;;;;;;;;;;4986132;28;20236;-31
2022/03/22 03:34:29;;;;;;;13.13;7.83;;;;;;;;;;4989653;28;20204;-26
2022/03/22 03:36:56;;;;;;;12.67;7.93;;;;;;;;;;4990805;28;20258;-28
2022/03/22 03:39:23;;;;;;;11.47;7.40;;;;;;;;;;4984571;28;20208;-26
2022/03/22 03:41:57;;;;;;;9.80;6.77;;;;;;;;;;4970473;28;20236;-28
2022/03/22 03:47:11;;;;;;;11.80;7.73;;;;;;;;;;4971900;28;20207;-29
2022/03/22 03:49:41;;;;;;;12.67;7.47;;;;;;;;;;4974528;28;20204;-27
2022/03/22 03:52:09;;;;;;;11.93;8.23;;;;;;;;;;4977405;28;20209;-30
2022/03/22 03:54:37;;;;;;;11.60;7.83;;;;;;;;;;4970146;28;20212;-28
2022/03/22 03:57:05;;;;;;;10.40;7.60;;;;;;;;;;4974152;28;20240;-27
2022/03/22 03:59:32;;;;;;;10.20;7.03;;;;;;;;;;4981958;28;20286;-28
2022/03/22 04:02:00;;;;;;;11.67;7.80;;;;;;;;;;4990243;28;20200;-31
2022/03/22 04:04:27;;;;;;;10.97;7.63;;;;;;;;;;4988180;28;20282;-27
2022/03/22 04:06:56;;;;;;;7.97;6.00;;;;;;;;;;4984889;28;20270;-30
2022/03/22 04:09:23;;;;;;;11.07;7.00;;;;;;;;;;4976530;28;20196;-29
2022/03/22 04:11:50;;;;;;;10.33;7.37;;;;;;;;;;4989942;28;20231;-33
2022/03/22 04:14:18;;;;;;;10.57;7.53;;;;;;;;;;4980142;28;20228;-30
2022/03/22 04:16:46;;;;;;;11.87;7.93;;;;;;;;;;4982437;28;20234;-28
2022/03/22 04:19:13;;;;;;;12.50;7.87;;;;;;;;;;4973416;28;20254;-30
2022/03/22 04:21:41;;;;;;;10.20;7.03;;;;;;;;;;4974395;28;20212;-31
2022/03/22 04:24:10;;;;;;;9.17;6.70;;;;;;;;;;4976205;28;20220;-29
2022/03/22 04:26:38;;;;;;;9.77;6.93;;;;;;;;;;4979163;28;20270;-26
2022/03/22 04:34:38;;;;;;;12.17;7.70;;;;;;;;;;4972718;28;20193;-28
2022/03/22 04:37:06;;;;;;;10.30;7.73;;;;;;;;;;4970167;28;20200;-29
2022/03/22 04:39:35;;;;;;;10.17;7.37;;;;;;;;;;4974642;28;20209;-26
2022/03/22 04:42:04;;;;;;;10.30;7.70;;;;;;;;;;4982885;28;20212;-30
2022/03/22 04:44:31;;;;;;;12.03;7.93;;;;;;;;;;4981427;28;20216;-30
2022/03/22 04:46:59;;;;;;;12.10;7.73;;;;;;;;;;4973897;28;20300;-28
2022/03/22 04:49:27;;;;;;;10.70;7.30;;;;;;;;;;4978932;28;20303;-28
2022/03/22 04:57:26;;;;;;;10.60;7.93;;;;;;;;;;4976278;28;20208;-33
2022/03/22 04:59:54;;;;;;;12.30;8.07;;;;;;;;;;4987499;28;20204;-30
2022/03/22 05:02:21;;;;;;;11.67;8.10;;;;;;;;;;4993147;28;20200;-31
2022/03/22 05:04:48;;;;;;;10.63;8.03;;;;;;;;;;4981166;28;20259;-30
2022/03/22 05:07:16;;;;;;;10.87;7.53;;;;;;;;;;4979676;28;20231;-33
2022/03/22 05:09:44;;;;;;;13.33;8.40;;;;;;;;;;4984897;28;20200;-32
2022/03/22 05:12:13;;;;;;;13.10;7.60;;;;;;;;;;4990507;28;20251;-30
2022/03/22 05:14:41;;;;;;;10.90;7.67;;;;;;;;;;4986966;28;20200;-30
2022/03/22 05:17:11;;;;;;;12.97;7.80;;;;;;;;;;4989421;28;20201;-29
2022/03/22 05:19:38;;;;;;;13.10;7.67;;;;;;;;;;4988908;28;20290;-28
2022/03/22 05:22:06;;;;;;;11.43;7.97;;;;;;;;;;4991766;28;20208;-31
2022/03/22 05:24:33;;;;;;;11.67;7.90;;;;;;;;;;4991132;28;20220;-28
2022/03/22 05:27:02;;;;;;;13.57;8.00;;;;;;;;;;4975451;28;20200;-30
2022/03/22 05:29:30;;;;;;;11.93;8.57;;;;;;;;;;4974498;28;20204;-29
2022/03/22 05:31:57;;;;;;;10.23;7.13;;;;;;;;;;4975168;28;20216;-31
2022/03/22 05:34:24;;;;;;;10.40;7.33;;;;;;;;;;4985326;28;20271;-30
2022/03/22 05:36:52;;;;;;;11.83;8.10;;;;;;;;;;4975477;28;20224;-30
2022/03/22 05:39:20;;;;;;;14.77;9.73;;;;;;;;;;4994363;28;20208;-29
2022/03/22 05:41:49;;;;;;;20.07;10.60;;;;;;;;;;4978880;28;20263;-25
2022/03/22 05:44:20;;;;;;;15.53;10.53;;;;;;;;;;4985444;28;20674;-28
2022/03/22 05:46:47;;;;;;;17.50;10.37;;;;;;;;;;4987690;28;20199;-27
2022/03/22 05:49:14;;;;;;;17.13;9.87;;;;;;;;;;4992600;28;20204;-26
2022/03/22 05:51:42;;;;;;;22.17;12.20;;;;;;;;;;4992643;28;20294;-26
2022/03/22 05:54:09;;;;;;;20.80;11.80;;;;;;;;;;4996454;28;20274;-32
2022/03/22 05:56:36;;;;;;;23.17;11.50;;;;;;;;;;4991851;28;20224;-27
2022/03/22 05:59:03;;;;;;;20.47;11.93;;;;;;;;;;4983447;28;20209;-30
2022/03/22 06:01:32;;;;;;;19.50;12.10;;;;;;;;;;4983387;28;20239;-26
2022/03/22 06:04:00;;;;;;;16.63;10.40;;;;;;;;;;4985121;28;20242;-31
2022/03/22 06:06:27;;;;;;;19.30;11.00;;;;;;;;;;4989418;28;20278;-26
2022/03/22 06:08:54;;;;;;;13.03;9.10;;;;;;;;;;4987984;28;20197;-27
2022/03/22 06:11:21;;;;;;;15.53;9.77;;;;;;;;;;4986291;28;20207;-30
2022/03/22 06:13:49;;;;;;;13.87;8.60;;;;;;;;;;4991434;28;20260;-29
2022/03/22 06:16:16;;;;;;;12.80;9.17;;;;;;;;;;4982129;28;20316;-28
2022/03/22 06:18:45;;;;;;;14.00;8.93;;;;;;;;;;4990601;28;20207;-28
2022/03/22 06:21:13;;;;;;;16.53;10.30;;;;;;;;;;4988380;28;20275;-28
2022/03/22 06:23:40;;;;;;;15.87;9.43;;;;;;;;;;4983875;28;20192;-29
2022/03/22 06:26:07;;;;;;;17.77;10.30;;;;;;;;;;4979254;28;20224;-27
2022/03/22 06:28:34;;;;;;;15.20;10.73;;;;;;;;;;4976318;28;20659;-27
2022/03/22 06:31:02;;;;;;;15.93;10.23;;;;;;;;;;4984566;28;20197;-27
2022/03/22 06:33:29;;;;;;;16.00;9.80;;;;;;;;;;4992966;28;20208;-26
2022/03/22 06:36:01;;;;;;;13.27;8.77;;;;;;;;;;4989243;28;20228;-30
2022/03/22 06:38:32;;;;;;;15.30;10.60;;;;;;;;;;4989829;28;20196;-27
2022/03/22 06:40:59;;;;;;;18.00;10.50;;;;;;;;;;4982332;28;20201;-28
2022/03/22 06:43:28;;;;;;;13.07;9.57;;;;;;;;;;4975071;28;20200;-34
2022/03/22 06:45:55;;;;;;;17.33;10.00;;;;;;;;;;4987796;28;20317;-28
2022/03/22 06:48:23;;;;;;;13.73;9.90;;;;;;;;;;4985184;28;20538;-31
2022/03/22 06:50:51;;;;;;;14.50;10.33;;;;;;;;;;4986476;28;20202;-30
2022/03/22 06:53:20;;;;;;;13.87;9.60;;;;;;;;;;4992804;28;20250;-27
2022/03/22 06:55:47;;;;;;;14.10;9.83;;;;;;;;;;4990156;28;20228;-30
2022/03/22 06:58:18;;;;;;;13.87;9.90;;;;;;;;;;4982144;28;20225;-31
2022/03/22 07:00:46;;;;;;;12.97;10.13;;;;;;;;;;4974533;28;20209;-28
2022/03/22 07:03:13;;;;;;;15.13;10.13;;;;;;;;;;4974582;28;20301;-30
2022/03/22 07:05:42;;;;;;;13.63;10.17;;;;;;;;;;4999119;28;20227;-28
2022/03/22 07:08:09;;;;;;;13.10;9.77;;;;;;;;;;4980988;28;20228;-28
2022/03/22 07:10:38;;;;;;;15.77;10.70;;;;;;;;;;4973219;28;20236;-28
2022/03/22 07:13:05;;;;;;;14.97;11.13;;;;;;;;;;4983678;28;20212;-32
2022/03/22 07:15:35;;;;;;;15.20;10.93;;;;;;;;;;4982797;28;20220;-27
2022/03/22 07:18:02;;;;;;;16.20;9.90;;;;;;;;;;4991697;28;20278;-24
2022/03/22 07:20:30;;;;;;;16.47;9.93;;;;;;;;;;4993777;28;20277;-27
2022/03/22 07:22:57;;;;;;;18.37;8.97;;;;;;;;;;4996197;28;20211;-28
2022/03/22 07:25:25;;;;;;;14.67;11.17;;;;;;;;;;4982626;28;20224;-25
2022/03/22 07:27:54;;;;;;;13.20;9.77;;;;;;;;;;4993754;28;20231;-26
2022/03/22 07:30:23;;;;;;;15.57;10.27;;;;;;;;;;4993986;28;20207;-29
2022/03/22 07:32:50;;;;;;;14.73;9.67;;;;;;;;;;4994098;28;20184;-27
2022/03/22 07:35:19;;;;;;;20.53;10.53;;;;;;;;;;4973072;28;20232;-28
2022/03/22 07:37:47;;;;;;;14.30;11.00;;;;;;;;;;4973876;28;20239;-28
2022/03/22 07:40:18;;;;;;;13.43;9.47;;;;;;;;;;5003502;28;20254;-28
2022/03/22 07:42:45;;;;;;;16.50;10.10;;;;;;;;;;4984908;28;20271;-29
2022/03/22 07:45:14;;;;;;;13.03;10.33;;;;;;;;;;4974390;28;20299;-27
2022/03/22 07:47:42;;;;;;;11.97;9.47;;;;;;;;;;4986771;28;20208;-29
2022/03/22 07:53:06;;;;;;;17.80;10.20;;;;;;;;;;4987563;28;20215;-31
2022/03/22 07:55:35;;;;;;;13.20;9.90;;;;;;;;;;4984806;28;20239;-26
2022/03/22 07:58:03;;;;;;;13.57;9.90;;;;;;;;;;4985089;28;20232;-29
2022/03/22 08:00:31;;;;;;;14.90;10.37;;;;;;;;;;4991621;28;20518;-29
2022/03/22 08:03:00;;;;;;;14.67;10.23;;;;;;;;;;4986983;28;20207;-26
2022/03/22 08:05:29;;;;;;;16.30;10.23;;;;;;;;;;4978452;28;20289;-27
2022/03/22 08:07:56;;;;;;;16.63;10.00;;;;;;;;;;4975547;28;20569;-29
2022/03/22 08:10:25;;;;;;;12.80;10.10;;;;;;;;;;4987430;28;20231;-28
2022/03/22 08:12:53;;;;;;;13.73;9.27;;;;;;;;;;4984650;28;20215;-28
2022/03/22 08:15:21;;;;;;;14.63;9.57;;;;;;;;;;4970257;28;20315;-27
2022/03/22 08:17:49;;;;;;;12.63;9.80;;;;;;;;;;4984250;28;20207;-29
2022/03/22 08:20:17;;;;;;;15.57;9.87;;;;;;;;;;4986132;28;20255;-28
2022/03/22 08:22:51;;;;;;;14.53;9.67;;;;;;;;;;4982641;28;20200;-28
2022/03/22 08:25:19;;;;;;;15.70;9.27;;;;;;;;;;4984677;28;20228;-26
2022/03/22 08:27:47;;;;;;;14.73;9.60;;;;;;;;;;4988228;28;20211;-28
2022/03/22 08:30:17;;;;;;;17.33;9.90;;;;;;;;;;4981799;28;20212;-29
2022/03/22 08:32:45;;;;;;;14.67;9.37;;;;;;;;;;4989047;28;20204;-26
2022/03/22 08:35:14;;;;;;;14.37;9.57;;;;;;;;;;4989320;28;20224;-28
2022/03/22 08:37:41;;;;;;;16.33;10.10;;;;;;;;;;4993269;28;20268;-32
2022/03/22 08:40:09;;;;;;;14.47;10.00;;;;;;;;;;4989293;28;20212;-29
2022/03/22 08:42:38;;;;;;;14.23;9.37;;;;;;;;;;4988911;28;20207;-28
2022/03/22 08:45:06;;;;;;;16.00;9.83;;;;;;;;;;4982790;28;20228;-27
2022/03/22 08:47:35;;;;;;;13.50;10.13;;;;;;;;;;4983106;28;20212;-31
2022/03/22 08:50:02;;;;;;;14.40;10.20;;;;;;;;;;4970368;28;20714;-25
2022/03/22 08:52:31;;;;;;;13.57;9.37;;;;;;;;;;4968846;28;20259;-32
2022/03/22 08:54:58;;;;;;;13.07;9.83;;;;;;;;;;4980491;28;20275;-29
2022/03/22 08:57:25;;;;;;;14.07;11.07;;;;;;;;;;4983932;28;20228;-28
2022/03/22 08:59:53;;;;;;;11.13;8.70;;;;;;;;;;4969661;28;20209;-29
2022/03/22 09:02:20;;;;;;;18.40;10.23;;;;;;;;;;4981572;28;20212;-27
2022/03/22 09:07:33;;;;;;;13.80;9.73;;;;;;;;;;4972264;28;20211;-29
2022/03/22 09:10:01;;;;;;;19.30;10.93;;;;;;;;;;4969618;28;20264;-28
2022/03/22 09:12:28;;;;;;;17.10;9.70;;;;;;;;;;4985800;28;20214;-30
2022/03/22 09:14:55;;;;;;;15.30;9.17;;;;;;;;;;4982373;28;20224;-27
2022/03/22 09:17:22;;;;;;;15.73;9.50;;;;;;;;;;4982061;28;20204;-28
2022/03/22 09:19:49;;;;;;;13.83;8.93;;;;;;;;;;4988147;28;20252;-27
2022/03/22 09:22:17;;;;;;;12.57;9.33;;;;;;;;;;4984648;28;20298;-27
2022/03/22 09:24:46;;;;;;;14.97;9.70;;;;;;;;;;4982805;28;20318;-31
2022/03/22 09:27:13;;;;;;;13.77;9.80;;;;;;;;;;4986132;28;20236;-31
2022/03/22 09:29:41;;;;;;;18.50;10.03;;;;;;;;;;4991651;28;20249;-27
2022/03/22 09:32:08;;;;;;;13.30;8.90;;;;;;;;;;4988830;28;20287;-27
2022/03/22 09:34:36;;;;;;;17.80;10.53;;;;;;;;;;4971466;28;20667;-29
2022/03/22 09:37:03;;;;;;;19.20;10.27;;;;;;;;;;4992662;28;20211;-32
2022/03/22 09:39:30;;;;;;;13.43;9.47;;;;;;;;;;4991611;28;20254;-27
2022/03/22 09:42:00;;;;;;;13.63;9.83;;;;;;;;;;4984653;28;20247;-29
2022/03/22 09:44:29;;;;;;;14.33;9.80;;;;;;;;;;4990708;28;20291;-29
2022/03/22 09:46:56;;;;;;;14.60;10.43;;;;;;;;;;4979855;28;20256;-26
2022/03/22 09:49:24;;;;;;;12.83;9.67;;;;;;;;;;4973671;28;20491;-27
2022/03/22 09:51:51;;;;;;;15.60;10.03;;;;;;;;;;4993332;28;20211;-28
2022/03/22 09:54:19;;;;;;;17.33;10.10;;;;;;;;;;4982648;28;20208;-27
2022/03/22 09:56:47;;;;;;;14.50;8.97;;;;;;;;;;4992319;28;20454;-27
2022/03/22 09:59:17;;;;;;;13.33;10.30;;;;;;;;;;4990216;28;20674;-27
2022/03/22 10:01:45;;;;;;;13.73;9.60;;;;;;;;;;4997153;28;20249;-29
2022/03/22 10:04:13;;;;;;;13.70;10.07;;;;;;;;;;4982712;28;20236;-27
2022/03/22 10:06:41;;;;;;;12.60;9.27;;;;;;;;;;4983284;28;20216;-29
2022/03/22 10:09:08;;;;;;;12.53;8.97;;;;;;;;;;4976846;28;20204;-28
2022/03/22 10:11:36;;;;;;;15.50;9.47;;;;;;;;;;4986528;28;20204;-26
2022/03/22 10:14:03;;;;;;;15.77;10.83;;;;;;;;;;4977398;28;20209;-27
2022/03/22 10:16:32;;;;;;;17.10;10.57;;;;;;;;;;4974880;28;20256;-25
2022/03/22 10:19:00;;;;;;;11.97;8.80;;;;;;;;;;4983587;28;20203;-25
2022/03/22 10:21:28;;;;;;;12.57;9.60;;;;;;;;;;4994249;28;20205;-28
2022/03/22 10:23:56;;;;;;;13.53;9.73;;;;;;;;;;4979704;28;20288;-30
2022/03/22 10:26:33;;;;;;;14.87;9.73;;;;;;;;;;4993688;28;20283;-28
2022/03/22 10:29:00;;;;;;;11.67;8.87;;;;;;;;;;4983300;28;20279;-28
2022/03/22 10:31:37;;;;;;;14.43;9.73;;;;;;;;;;4976489;28;20579;-29
2022/03/22 10:34:05;;;;;;;14.17;10.03;;;;;;;;;;4974838;28;20204;-28
2022/03/22 10:36:35;;;;;;;13.50;9.73;;;;;;;;;;4974237;28;20224;-30
2022/03/22 10:39:04;;;;;;;14.73;9.63;;;;;;;;;;4991148;28;20197;-30
2022/03/22 10:41:32;;;;;;;15.63;9.47;;;;;;;;;;4992918;28;20268;-29
2022/03/22 10:44:06;;;;;;;14.50;10.50;;;;;;;;;;4974377;28;20200;-27
2022/03/22 10:46:35;;;;;;;16.37;9.60;;;;;;;;;;4977765;28;20243;-27
2022/03/22 10:49:05;;;;;;;17.27;9.80;;;;;;;;;;5005517;28;20307;-26
2022/03/22 10:51:42;;;;;;;14.60;10.67;;;;;;;;;;4986038;28;20227;-29
2022/03/22 10:54:12;;;;;;;13.60;9.83;;;;;;;;;;4988787;28;20217;-27
2022/03/22 10:56:45;;;;;;;16.30;10.20;;;;;;;;;;4981460;28;20216;-24
2022/03/22 10:59:13;;;;;;;15.57;10.17;;;;;;;;;;4986058;28;20263;-28
2022/03/22 11:01:43;;;;;;;16.93;11.13;;;;;;;;;;4994661;28;20498;-30
2022/03/22 11:04:10;;;;;;;14.10;10.47;;;;;;;;;;4987232;28;20287;-29
2022/03/22 11:06:39;;;;;;;14.33;9.80;;;;;;;;;;4978237;28;20383;-29
2022/03/22 11:09:06;;;;;;;15.13;10.10;;;;;;;;;;4974106;28;20259;-27
2022/03/22 11:11:35;;;;;;;15.37;10.57;;;;;;;;;;4981500;28;20282;-28
2022/03/22 11:14:02;;;;;;;15.87;11.23;;;;;;;;;;4990398;28;20220;-28
2022/03/22 11:16:30;;;;;;;15.27;10.30;;;;;;;;;;4993102;28;20274;-28
2022/03/22 11:19:00;;;;;;;14.87;9.50;;;;;;;;;;4992584;28;20207;-25
2022/03/22 11:21:28;;;;;;;17.53;10.23;;;;;;;;;;4990281;28;20247;-27
2022/03/22 11:24:04;;;;;;;15.97;9.73;;;;;;;;;;4991690;28;20295;-25
2022/03/22 11:26:32;;;;;;;14.37;9.83;;;;;;;;;;4991346;28;20231;-26
2022/03/22 11:28:59;;;;;;;17.60;11.47;;;;;;;;;;4992353;28;20238;-24
2022/03/22 11:31:27;;;;;;;16.43;10.20;;;;;;;;;;4983667;28;20208;-29
2022/03/22 11:34:09;;;;;;;14.40;9.87;;;;;;;;;;4982624;28;20201;-27
2022/03/22 11:36:45;;;;;;;13.03;9.60;;;;;;;;;;4983396;28;20219;-28
2022/03/22 11:39:18;;;;;;;13.80;9.67;;;;;;;;;;4977611;28;20212;-29
2022/03/22 11:44:38;;;;;;;10.73;8.43;;;;;;;;;;4982826;28;20191;-27
2022/03/22 11:47:08;;;;;;;12.43;8.87;;;;;;;;;;4978673;28;20258;-28
2022/03/22 11:49:49;;;;;;;11.93;7.90;;;;;;;;;;4989779;28;20643;-29
2022/03/22 11:52:18;;;;;;;11.93;8.57;;;;;;;;;;4986476;28;20210;-30
2022/03/22 11:54:55;;;;;;;10.90;7.30;;;;;;;;;;4989920;28;20287;-27
2022/03/22 11:57:22;;;;;;;15.27;8.97;;;;;;;;;;4980937;28;20204;-30
2022/03/22 11:59:52;;;;;;;13.80;8.87;;;;;;;;;;4991435;28;20644;-27
2022/03/22 12:02:20;;;;;;;14.10;10.33;;;;;;;;;;4989100;28;20218;-25
2022/03/22 12:04:50;;;;;;;14.77;8.87;;;;;;;;;;4984055;28;20263;-28
2022/03/22 12:07:24;;;;;;;14.93;9.43;;;;;;;;;;4992631;28;20227;-25
2022/03/22 12:09:52;;;;;;;14.73;9.50;;;;;;;;;;4979161;28;20197;-26
2022/03/22 12:12:19;;;;;;;15.00;8.90;;;;;;;;;;4989886;28;20212;-29
2022/03/22 12:14:48;;;;;;;15.30;8.60;;;;;;;;;;4991284;28;20247;-28
2022/03/22 12:17:16;;;;;;;16.47;10.57;;;;;;;;;;4992084;28;20204;-28
2022/03/22 12:19:43;;;;;;;14.27;9.53;;;;;;;;;;4981074;28;20290;-25
2022/03/22 12:22:10;;;;;;;12.97;9.23;;;;;;;;;;4997447;28;20223;-24
2022/03/22 12:24:39;;;;;;;16.10;9.83;;;;;;;;;;4991226;28;20196;-30
2022/03/22 12:27:08;;;;;;;12.97;9.30;;;;;;;;;;4973722;28;20287;-30
2022/03/22 12:29:39;;;;;;;15.03;9.20;;;;;;;;;;4992914;28;20255;-26
2022/03/22 12:32:07;;;;;;;13.33;9.00;;;;;;;;;;4994822;28;20209;-29
2022/03/22 12:34:38;;;;;;;12.40;8.43;;;;;;;;;;4987224;28;20206;-31
2022/03/22 12:37:08;;;;;;;13.37;8.70;;;;;;;;;;4991647;28;20212;-29
2022/03/22 12:39:36;;;;;;;12.70;8.10;;;;;;;;;;4990661;28;20215;-27
2022/03/22 12:42:05;;;;;;;10.87;7.77;;;;;;;;;;4982783;28;20200;-28
2022/03/22 12:44:32;;;;;;;13.70;8.43;;;;;;;;;;4972886;28;20268;-24
2022/03/22 12:47:00;;;;;;;12.40;8.40;;;;;;;;;;4989760;28;20235;-29
2022/03/22 12:49:27;;;;;;;13.30;8.53;;;;;;;;;;4984769;28;20231;-31
2022/03/22 12:51:56;;;;;;;13.20;8.00;;;;;;;;;;4977207;28;20201;-28
2022/03/22 12:54:23;;;;;;;11.47;8.33;;;;;;;;;;4975042;28;20263;-29
2022/03/22 12:56:51;;;;;;;11.13;7.60;;;;;;;;;;4994395;28;20224;-27
2022/03/22 12:59:21;;;;;;;10.47;7.17;;;;;;;;;;4987583;28;20277;-29
2022/03/22 13:01:57;;;;;;;8.27;6.70;;;;;;;;;;4990625;28;20232;-28
2022/03/22 13:04:24;;;;;;;11.03;7.87;;;;;;;;;;4992387;28;20222;-28
2022/03/22 13:06:56;;;;;;;9.53;7.40;;;;;;;;;;4993085;28;20223;-32
2022/03/22 13:12:10;;;;;;;13.30;7.63;;;;;;;;;;4994127;28;20208;-28
2022/03/22 13:17:24;;;;;;;7.87;6.20;;;;;;;;;;4972560;28;20343;-26
2022/03/22 13:19:52;;;;;;;7.77;6.17;;;;;;;;;;4976263;28;20287;-28
2022/03/22 13:22:20;;;;;;;10.43;5.90;;;;;;;;;;4981680;28;20209;-28
2022/03/22 13:24:48;;;;;;;8.63;6.13;;;;;;;;;;4987755;28;20515;-28
2022/03/22 13:27:17;;;;;;;7.83;5.50;;;;;;;;;;4989615;28;20227;-25
2022/03/22 13:29:46;;;;;;;10.93;6.30;;;;;;;;;;4980535;28;20207;-26
2022/03/22 13:32:14;;;;;;;7.83;5.93;;;;;;;;;;4992507;28;20260;-26
2022/03/22 13:34:43;;;;;;;11.57;6.53;;;;;;;;;;4994474;28;20208;-29
2022/03/22 13:37:11;;;;;;;7.63;6.00;;;;;;;;;;4991423;28;20215;-27
2022/03/22 13:39:42;;;;;;;8.23;5.87;;;;;;;;;;4987771;28;20204;-29
2022/03/22 13:42:11;;;;;;;11.60;6.93;;;;;;;;;;4992376;28;20208;-26
2022/03/22 13:44:46;;;;;;;8.67;5.63;;;;;;;;;;4993333;28;20227;-30
2022/03/22 13:47:24;;;;;;;5.70;5.10;;;;;;;;;;4989603;28;20255;-25
2022/03/22 13:49:52;;;;;;;7.70;5.33;;;;;;;;;;4987224;28;20195;-31
2022/03/22 13:52:25;;;;;;;9.33;5.93;;;;;;;;;;4987653;28;20210;-27
2022/03/22 13:54:53;;;;;;;9.73;6.27;;;;;;;;;;4978649;28;20271;-26
2022/03/22 13:57:21;;;;;;;7.77;5.70;;;;;;;;;;4993449;28;20204;-29
2022/03/22 13:59:56;;;;;;;7.17;5.77;;;;;;;;;;4992979;28;20208;-28
2022/03/22 14:02:24;;;;;;;9.13;5.30;;;;;;;;;;4992942;28;20275;-29
2022/03/22 14:04:51;;;;;;;7.90;5.90;;;;;;;;;;4987036;28;20220;-27
2022/03/22 14:07:18;;;;;;;10.67;7.10;;;;;;;;;;4987031;28;20216;-31
2022/03/22 14:09:45;;;;;;;7.17;6.43;;;;;;;;;;4994337;28;20201;-25
2022/03/22 14:12:13;;;;;;;11.20;6.97;;;;;;;;;;4995241;28;20243;-28
2022/03/22 14:14:40;;;;;;;8.20;6.83;;;;;;;;;;4983495;28;20240;-27
2022/03/22 14:17:09;;;;;;;10.27;7.20;;;;;;;;;;4983852;28;20301;-29
2022/03/22 14:19:36;;;;;;;12.63;7.07;;;;;;;;;;4976006;28;20220;-28
2022/03/22 14:22:04;;;;;;;10.87;6.80;;;;;;;;;;4982254;28;20690;-29
2022/03/22 14:24:31;;;;;;;8.30;6.70;;;;;;;;;;4999826;28;20232;-29
2022/03/22 14:26:58;;;;;;;7.60;6.77;;;;;;;;;;4983038;28;20280;-28
2022/03/22 14:29:26;;;;;;;9.00;5.97;;;;;;;;;;4975651;28;20289;-28
2022/03/22 14:31:53;;;;;;;11.40;6.17;;;;;;;;;;4999160;28;20211;-30
2022/03/22 14:37:07;;;;;;;6.77;5.17;;;;;;;;;;4994910;28;20214;-28
2022/03/22 14:39:35;;;;;;;7.37;5.63;;;;;;;;;;4996089;28;20265;-28
2022/03/22 14:42:03;;;;;;;7.10;5.97;;;;;;;;;;4991667;28;20208;-28
2022/03/22 14:44:31;;;;;;;8.77;5.80;;;;;;;;;;4974823;28;20213;-28
2022/03/22 14:46:58;;;;;;;7.40;5.83;;;;;;;;;;4976251;28;20285;-26
2022/03/22 14:49:27;;;;;;;11.53;6.13;;;;;;;;;;4982140;28;20205;-28
2022/03/22 14:54:39;;;;;;;8.07;5.13;;;;;;;;;;4994009;28;20203;-29
2022/03/22 14:59:51;;;;;;;13.27;7.50;;;;;;;;;;4983443;28;20268;-32
2022/03/22 15:02:18;;;;;;;10.27;7.57;;;;;;;;;;4996893;28;20287;-30
2022/03/22 15:04:48;;;;;;;10.87;7.00;;;;;;;;;;4985817;28;20257;-29
2022/03/22 15:07:21;;;;;;;8.67;6.43;;;;;;;;;;4973000;28;20213;-31
2022/03/22 15:09:48;;;;;;;11.50;7.30;;;;;;;;;;4986773;28;20214;-29
2022/03/22 15:12:16;;;;;;;10.03;6.73;;;;;;;;;;4981229;28;20255;-28
2022/03/22 15:14:43;;;;;;;7.80;6.00;;;;;;;;;;4990452;28;20251;-28
2022/03/22 15:17:12;;;;;;;8.43;6.00;;;;;;;;;;4993920;28;20199;-26